Placita, New Mexico
Current Conditions -  °F | °C
As of 4:55 AM on Sunday 21 Dec 2014 (Local Time) from KSKX Reporting Station
Clear Clear  
Wind Chill: 19°   Ceiling: Unl
Heat Index: 25°   Visibility: 10mi
Dew Point: 19°   Wind: 5mph
Humidity: 80%   Direction: 230°SW
Pressure: 30.02"   Gusts: NA
Location:  36.1892°N, 105.688°W
Report Text: KSKX 211155Z AUTO 23004KT 10SM CLR M04/M07 A3002 RMK AO1 11010 21060 57014
Loading
Personal Weather Stations






























Interactive Weather Map New forecast layout! Learn more

10-Day Weather Forecast

Advertisements
Track Severe Weather on mobile